Oros, Brazil
Current Conditions -  °F | °C
As of 3:00 PM on Thursday 29 Jan 2015 (Local Time) from SBJU Reporting Station
Scattered Clouds Scattered Clouds  
Wind Chill: 97°   Ceiling: Unl
Heat Index: 98°   Visibility: 6mi
Dew Point: 63°   Wind: 7mph
Humidity: 32%   Direction: 250°WSW
Pressure: 29.88"   Gusts: NA
Location:  6.24°S, 38.91°W
Report Text: SBJU 291800Z 25006KT 9999 SCT023 36/17 Q1012
Loading
Personal Weather Stations






























Interactive Weather Map New forecast layout! Learn more

10-Day Weather Forecast

Advertisements
Track Severe Weather on mobile